createdAt,value
2018-06-05T00:00:22.309Z,101006.75
2018-06-05T00:03:26.584Z,101001.45
2018-06-05T00:06:30.835Z,101001.89
2018-06-05T00:09:35.113Z,101001.38
2018-06-05T00:12:39.420Z,101000.89
2018-06-05T00:15:43.711Z,101006.92
2018-06-05T00:18:48.061Z,101009.08
2018-06-05T00:21:52.364Z,101009.48
2018-06-05T00:24:56.621Z,101005.50
2018-06-05T00:28:00.877Z,101003.29
2018-06-05T00:31:05.117Z,101010.64
2018-06-05T00:34:09.400Z,101008.45
2018-06-05T00:37:13.686Z,101010.20
2018-06-05T00:40:17.969Z,101015.03
2018-06-05T00:43:22.237Z,101014.55
2018-06-05T00:46:26.540Z,101007.14
2018-06-05T00:49:30.863Z,101015.03
2018-06-05T00:52:35.164Z,101015.95
2018-06-05T00:55:39.432Z,101028.19
2018-06-05T00:58:43.698Z,101020.45
2018-06-05T01:01:48.037Z,101030.11
2018-06-05T01:04:52.298Z,101027.98
2018-06-05T01:07:56.585Z,101031.06
2018-06-05T01:11:00.858Z,101028.03
2018-06-05T01:14:05.231Z,101033.25
2018-06-05T01:17:09.534Z,101035.88
2018-06-05T01:20:13.866Z,101034.99
2018-06-05T01:23:17.896Z,101031.05
2018-06-05T01:26:22.193Z,101027.08
2018-06-05T01:29:26.435Z,101023.13
2018-06-05T01:32:30.683Z,101024.88
2018-06-05T01:35:35.034Z,101025.73
2018-06-05T01:38:39.329Z,101025.72
2018-06-05T01:41:43.574Z,101014.41
2018-06-05T01:44:47.886Z,101025.73
2018-06-05T01:47:52.097Z,101021.34
2018-06-05T01:50:56.381Z,101021.34
2018-06-05T01:54:00.596Z,101020.48
2018-06-05T01:57:04.977Z,101020.52
2018-06-05T02:00:09.264Z,101023.63
2018-06-05T02:03:14.299Z,101025.85
2018-06-05T02:06:18.643Z,101033.35
2018-06-05T02:09:22.955Z,101022.89
2018-06-05T02:12:27.289Z,101029.89
2018-06-05T02:15:31.593Z,101030.75
2018-06-05T02:18:36.014Z,101030.28
2018-06-05T02:21:40.343Z,101028.95
2018-06-05T02:24:44.672Z,101025.83
2018-06-05T02:27:48.976Z,101022.66
2018-06-05T02:30:53.345Z,101016.05
2018-06-05T02:33:57.731Z,101013.85
2018-06-05T02:37:02.039Z,101014.23
2018-06-05T02:40:06.305Z,101024.25
2018-06-05T02:43:10.585Z,101017.69
2018-06-05T02:46:14.834Z,101020.74
2018-06-05T02:49:19.109Z,101021.09
2018-06-05T02:52:23.437Z,101016.67
2018-06-05T02:55:27.761Z,101027.08
2018-06-05T02:58:32.073Z,101025.75
2018-06-05T03:01:36.345Z,101015.27
2018-06-05T03:04:40.713Z,101015.28
2018-06-05T03:07:45.025Z,101021.85
2018-06-05T03:10:49.275Z,101026.30
2018-06-05T03:13:53.665Z,101021.56
2018-06-05T03:16:57.936Z,101027.30
2018-06-05T03:20:02.200Z,101023.84
2018-06-05T03:23:06.724Z,101016.06
2018-06-05T03:26:11.034Z,101013.45
2018-06-05T03:29:15.327Z,101011.28
2018-06-05T03:32:19.563Z,101016.11
2018-06-05T03:35:23.902Z,101013.09
2018-06-05T03:38:28.185Z,101017.08
2018-06-05T03:41:32.465Z,101013.09
2018-06-05T03:44:36.863Z,101016.57
2018-06-05T03:47:41.181Z,101016.12
2018-06-05T03:50:45.505Z,101025.25
2018-06-05T03:53:49.763Z,101026.16
2018-06-05T03:56:54.033Z,101030.16
2018-06-05T03:59:58.358Z,101033.70
2018-06-05T04:03:02.400Z,101038.98
2018-06-05T04:49:03.491Z,101069.38
2018-06-05T04:52:07.749Z,101067.58
2018-06-05T04:55:12.019Z,101070.59
2018-06-05T04:58:16.297Z,101075.83
2018-06-05T05:01:20.603Z,101079.76
2018-06-05T05:04:24.836Z,101077.56
2018-06-05T05:07:29.166Z,101083.68
2018-06-05T05:10:33.448Z,101084.56
2018-06-05T05:13:37.752Z,101082.79
2018-06-05T05:16:42.028Z,101088.05
2018-06-05T05:19:46.322Z,101089.80
2018-06-05T05:22:50.620Z,101093.76
2018-06-05T05:25:54.957Z,101092.05
2018-06-05T05:28:59.253Z,101097.34
2018-06-05T05:32:03.572Z,101106.94
2018-06-05T05:35:08.375Z,101104.33
2018-06-05T05:38:14.197Z,101104.82
2018-06-05T05:41:18.792Z,101103.12
2018-06-05T05:44:23.113Z,101104.02
2018-06-05T05:47:27.436Z,101100.56
2018-06-05T05:50:31.744Z,101101.00
2018-06-05T05:53:36.175Z,101105.80
2018-06-05T05:56:40.485Z,101115.05
2018-06-05T05:59:44.829Z,101119.42
2018-06-05T06:02:49.132Z,101120.33
2018-06-05T06:05:53.431Z,101132.12
2018-06-05T06:08:57.764Z,101132.15
2018-06-05T06:12:02.092Z,101132.16
2018-06-05T06:15:06.407Z,101132.17
2018-06-05T06:18:10.731Z,101125.64
2018-06-05T06:21:14.997Z,101129.55
2018-06-05T06:24:19.854Z,101132.19
2018-06-05T06:27:24.119Z,101131.32
2018-06-05T06:30:28.423Z,101137.85
2018-06-05T06:33:32.577Z,101139.61
2018-06-05T06:36:36.852Z,101128.25
2018-06-05T06:39:41.121Z,101144.00
2018-06-05T06:42:45.382Z,101137.00
2018-06-05T06:45:49.726Z,101144.40
2018-06-05T06:48:53.876Z,101132.17
2018-06-05T06:51:58.175Z,101135.66
2018-06-05T06:55:02.458Z,101138.69
2018-06-05T06:58:06.779Z,101136.52
2018-06-05T07:01:11.056Z,101143.94
2018-06-05T07:04:15.337Z,101148.74
2018-06-05T07:07:19.594Z,101143.02
2018-06-05T07:10:23.931Z,101141.23
2018-06-05T07:13:28.212Z,101140.73
2018-06-05T07:16:32.508Z,101147.74
2018-06-05T07:19:36.761Z,101152.94
2018-06-05T07:22:41.050Z,101149.38
2018-06-05T07:25:45.359Z,101155.48
2018-06-05T07:28:49.633Z,101159.91
2018-06-05T07:31:53.916Z,101160.33
2018-06-05T07:34:57.944Z,101158.94
2018-06-05T07:38:02.230Z,101156.00
2018-06-05T07:41:06.544Z,101161.16
2018-06-05T07:44:10.795Z,101164.12
2018-06-05T07:47:15.186Z,101164.03
2018-06-05T07:50:19.982Z,101169.16
2018-06-05T07:53:24.323Z,101173.55
2018-06-05T07:56:28.651Z,101171.84
2018-06-05T07:59:32.986Z,101178.42
2018-06-05T08:02:37.342Z,101178.81
2018-06-05T08:05:41.635Z,101170.41
2018-06-05T08:08:45.941Z,101179.43
2018-06-05T08:11:50.274Z,101171.50
2018-06-05T08:14:54.565Z,101180.36
2018-06-05T08:17:58.881Z,101181.16
2018-06-05T08:21:03.201Z,101172.47
2018-06-05T08:24:07.567Z,101176.76
2018-06-05T08:27:11.846Z,101174.61
2018-06-05T08:30:16.162Z,101181.50
2018-06-05T08:33:20.481Z,101185.12
2018-06-05T08:36:24.786Z,101187.12
2018-06-05T08:39:29.053Z,101188.09
2018-06-05T08:42:33.418Z,101186.45
2018-06-05T08:45:37.794Z,101191.34
2018-06-05T08:48:42.211Z,101196.54
2018-06-05T08:51:46.494Z,101196.23
2018-06-05T08:54:50.837Z,101200.61
2018-06-05T08:57:55.141Z,101201.06
2018-06-05T09:00:59.471Z,101206.35
2018-06-05T09:04:04.026Z,101200.47
2018-06-05T09:07:08.289Z,101202.91
2018-06-05T09:10:12.654Z,101212.55
2018-06-05T09:13:16.977Z,101207.42
2018-06-05T09:16:21.254Z,101209.78
2018-06-05T09:19:25.553Z,101197.97
2018-06-05T09:22:29.868Z,101203.61
2018-06-05T09:25:34.216Z,101201.42
2018-06-05T09:28:38.568Z,101202.78
2018-06-05T09:31:42.854Z,101201.70
2018-06-05T09:34:47.168Z,101196.88
2018-06-05T09:37:51.420Z,101202.44
2018-06-05T09:40:55.788Z,101207.91
2018-06-05T09:44:00.148Z,101208.70
2018-06-05T09:47:04.552Z,101215.58
2018-06-05T09:50:08.848Z,101214.05
2018-06-05T09:53:13.492Z,101216.58
2018-06-05T09:56:17.954Z,101220.73
2018-06-05T09:59:22.244Z,101225.39
2018-06-05T10:02:26.537Z,101225.17
2018-06-05T10:05:30.809Z,101221.16
2018-06-05T10:08:35.064Z,101236.34
2018-06-05T10:11:39.409Z,101225.45
2018-06-05T10:14:43.682Z,101230.45
2018-06-05T10:17:48.059Z,101234.73
2018-06-05T10:20:52.353Z,101236.67
2018-06-05T10:23:56.787Z,101241.31
2018-06-05T10:27:01.105Z,101241.74
2018-06-05T10:30:05.422Z,101240.26
2018-06-05T10:33:09.773Z,101232.98
2018-06-05T10:36:14.069Z,101238.38
2018-06-05T10:39:18.344Z,101252.09
2018-06-05T10:42:22.600Z,101247.92
2018-06-05T10:45:26.890Z,101252.36
2018-06-05T10:48:31.255Z,101240.59
2018-06-05T10:51:35.660Z,101243.69
2018-06-05T10:54:39.992Z,101244.61
2018-06-05T10:57:44.292Z,101251.52
2018-06-05T11:00:48.646Z,101249.89
2018-06-05T11:03:52.936Z,101248.98
2018-06-05T11:06:57.238Z,101243.58
2018-06-05T11:10:01.536Z,101246.40
2018-06-05T11:13:05.935Z,101245.62
2018-06-05T11:16:10.322Z,101240.23
2018-06-05T11:19:14.673Z,101242.73
2018-06-05T11:22:19.161Z,101237.05
2018-06-05T11:25:23.501Z,101239.05
2018-06-05T11:28:27.787Z,101241.53
2018-06-05T11:31:31.907Z,101241.89
2018-06-05T11:34:36.161Z,101237.80
2018-06-05T11:37:40.457Z,101250.80
2018-06-05T11:40:44.790Z,101247.47
2018-06-05T11:43:49.088Z,101251.88
2018-06-05T11:46:53.477Z,101255.90
2018-06-05T11:49:57.720Z,101249.20
2018-06-05T11:53:02.066Z,101250.97
2018-06-05T11:56:06.411Z,101252.84
2018-06-05T11:59:10.870Z,101243.68
2018-06-05T12:02:15.422Z,101239.75
2018-06-05T12:05:20.047Z,101239.12
2018-06-05T12:08:24.397Z,101233.13
2018-06-05T12:11:28.685Z,101236.30
2018-06-05T12:14:33.036Z,101235.31
2018-06-05T12:17:37.297Z,101248.86
2018-06-05T12:20:41.644Z,101242.27
2018-06-05T12:23:45.960Z,101240.17
2018-06-05T12:26:50.297Z,101236.16
2018-06-05T12:29:54.604Z,101232.59
2018-06-05T12:32:58.928Z,101233.98
2018-06-05T12:36:03.183Z,101234.98
2018-06-05T12:39:09.254Z,101229.09
2018-06-05T12:42:13.582Z,101237.70
2018-06-05T12:45:17.975Z,101235.15
2018-06-05T12:48:22.267Z,101232.67
2018-06-05T12:51:26.704Z,101232.34
2018-06-05T12:54:30.985Z,101228.41
2018-06-05T12:57:35.319Z,101238.22
2018-06-05T13:00:39.473Z,101241.64
2018-06-05T13:03:43.832Z,101244.65
2018-06-05T13:06:48.169Z,101251.92
2018-06-05T13:09:52.419Z,101250.03
2018-06-05T13:12:56.800Z,101252.20
2018-06-05T13:16:01.122Z,101258.28
2018-06-05T13:19:05.433Z,101245.24
2018-06-05T13:22:09.764Z,101244.06
2018-06-05T13:25:14.028Z,101250.25
2018-06-05T13:28:18.303Z,101247.48
2018-06-05T13:31:22.802Z,101252.05
2018-06-05T13:34:27.241Z,101248.73
2018-06-05T13:37:31.643Z,101248.57
2018-06-05T13:40:36.110Z,101252.03
2018-06-05T13:43:40.226Z,101252.62
2018-06-05T13:46:44.510Z,101252.27
2018-06-05T13:49:48.807Z,101251.95
2018-06-05T13:52:53.166Z,101249.38
2018-06-05T13:55:57.454Z,101245.51
2018-06-05T13:59:01.797Z,101245.05
2018-06-05T14:02:06.137Z,101246.95
2018-06-05T14:05:10.440Z,101244.73
2018-06-05T14:08:14.757Z,101243.89
2018-06-05T14:11:19.357Z,101238.19
2018-06-05T14:14:23.707Z,101239.67
2018-06-05T14:17:28.118Z,101241.80
2018-06-05T14:20:32.451Z,101248.14
2018-06-05T14:23:36.728Z,101242.58
2018-06-05T14:26:41.106Z,101240.39
2018-06-05T14:29:45.497Z,101245.41
2018-06-05T14:32:49.841Z,101241.48
2018-06-05T14:35:54.023Z,101238.19
2018-06-05T14:38:58.325Z,101243.03
2018-06-05T14:42:02.713Z,101238.59
2018-06-05T14:45:07.058Z,101242.94
2018-06-05T14:48:11.446Z,101242.55
2018-06-05T14:51:15.762Z,101240.59
2018-06-05T14:54:20.058Z,101232.24
2018-06-05T14:57:24.374Z,101232.36
2018-06-05T15:00:28.703Z,101233.56
2018-06-05T15:03:33.005Z,101231.61
2018-06-05T15:06:37.345Z,101232.24
2018-06-05T15:09:41.645Z,101231.84
2018-06-05T15:12:45.965Z,101237.84
2018-06-05T15:15:50.294Z,101228.50
2018-06-05T15:18:54.596Z,101233.86
2018-06-05T15:21:58.956Z,101228.67
2018-06-05T15:25:03.255Z,101226.09
2018-06-05T15:28:07.574Z,101229.47
2018-06-05T15:31:11.837Z,101234.02
2018-06-05T15:34:16.098Z,101229.89
2018-06-05T15:37:20.403Z,101233.25
2018-06-05T15:40:24.765Z,101227.23
2018-06-05T15:43:29.061Z,101226.50
2018-06-05T15:46:33.382Z,101221.27
2018-06-05T15:49:37.445Z,101220.62
2018-06-05T15:52:41.736Z,101221.52
2018-06-05T15:55:46.044Z,101230.11
2018-06-05T15:58:50.349Z,101227.05
2018-06-05T16:01:54.668Z,101224.44
2018-06-05T16:04:58.961Z,101220.01
2018-06-05T16:08:03.314Z,101227.38
2018-06-05T16:11:07.620Z,101219.75
2018-06-05T16:14:11.971Z,101210.99
2018-06-05T16:17:16.273Z,101220.72
2018-06-05T16:20:20.735Z,101218.89
2018-06-05T16:23:25.012Z,101229.30
2018-06-05T16:26:29.337Z,101218.73
2018-06-05T16:29:33.678Z,101225.64
2018-06-05T16:32:37.964Z,101224.78
2018-06-05T16:35:42.256Z,101220.10
2018-06-05T16:38:46.582Z,101227.88
2018-06-05T16:41:50.956Z,101229.63
2018-06-05T16:44:55.350Z,101226.49
2018-06-05T16:47:59.675Z,101225.05
2018-06-05T16:51:04.008Z,101223.47
2018-06-05T16:54:08.294Z,101224.86
2018-06-05T16:57:12.832Z,101222.12
2018-06-05T17:00:17.141Z,101224.82
2018-06-05T17:03:21.485Z,101225.52
2018-06-05T17:06:25.887Z,101226.97
2018-06-05T17:09:30.194Z,101227.48
2018-06-05T17:12:34.545Z,101229.19
2018-06-05T17:15:38.874Z,101228.16
2018-06-05T17:18:43.117Z,101223.30
2018-06-05T17:21:47.511Z,101224.75
2018-06-05T17:24:51.797Z,101232.05
2018-06-05T17:27:56.115Z,101231.54
2018-06-05T17:31:00.419Z,101227.30
2018-06-05T17:34:04.472Z,101228.95
2018-06-05T17:37:08.740Z,101230.73
2018-06-05T17:40:13.123Z,101225.61
2018-06-05T17:43:17.636Z,101220.23
2018-06-05T17:46:21.938Z,101224.26
2018-06-05T17:49:26.231Z,101229.42
2018-06-05T17:52:30.598Z,101222.83
2018-06-05T17:55:34.888Z,101223.87
2018-06-05T17:58:39.227Z,101232.87
2018-06-05T18:01:43.625Z,101233.94
2018-06-05T18:04:47.971Z,101237.23
2018-06-05T18:07:52.291Z,101231.02
2018-06-05T18:10:56.585Z,101236.89
2018-06-05T18:14:00.895Z,101233.45
2018-06-05T18:17:05.148Z,101232.19
2018-06-05T18:20:09.441Z,101232.25
2018-06-05T18:23:13.702Z,101237.97
2018-06-05T18:26:18.069Z,101240.66
2018-06-05T18:29:22.277Z,101240.66
2018-06-05T18:32:26.774Z,101241.69
2018-06-05T18:35:31.147Z,101257.59
2018-06-05T18:38:35.487Z,101250.58
2018-06-05T18:41:39.911Z,101255.98
2018-06-05T18:44:44.213Z,101253.94
2018-06-05T18:47:48.564Z,101265.35
2018-06-05T18:50:52.973Z,101259.63
2018-06-05T18:53:57.380Z,101269.82
2018-06-05T18:57:01.658Z,101263.69
2018-06-05T19:00:06.839Z,101266.78
2018-06-05T19:03:11.140Z,101271.78
2018-06-05T19:06:15.465Z,101271.88
2018-06-05T19:09:19.844Z,101274.66
2018-06-05T19:12:24.104Z,101280.39
2018-06-05T19:15:28.442Z,101283.06
2018-06-05T19:18:32.753Z,101282.73
2018-06-05T19:21:37.048Z,101288.09
2018-06-05T19:24:41.324Z,101289.83
2018-06-05T19:27:45.722Z,101285.95
2018-06-05T19:30:50.050Z,101290.91
2018-06-05T19:33:54.429Z,101291.05
2018-06-05T19:36:59.758Z,101289.34
2018-06-05T19:40:04.106Z,101286.33
2018-06-05T19:43:08.470Z,101293.84
2018-06-05T19:46:12.721Z,101292.16
2018-06-05T19:49:17.066Z,101295.66
2018-06-05T19:52:21.371Z,101296.16
2018-06-05T19:55:25.717Z,101304.05
2018-06-05T19:58:29.990Z,101300.57
2018-06-05T20:01:34.343Z,101300.20
2018-06-05T20:04:38.687Z,101308.59
2018-06-05T20:07:42.987Z,101316.08
2018-06-05T20:10:47.276Z,101314.80
2018-06-05T20:13:52.394Z,101314.81
2018-06-05T20:16:57.363Z,101315.28
2018-06-05T20:20:02.541Z,101317.50
2018-06-05T20:23:07.595Z,101322.34
2018-06-05T20:26:12.906Z,101326.71
2018-06-05T20:29:17.771Z,101321.48
2018-06-05T20:32:22.977Z,101322.80
2018-06-05T20:35:27.789Z,101325.42
2018-06-05T20:38:32.396Z,101330.69
2018-06-05T20:41:36.965Z,101329.83
2018-06-05T20:44:41.546Z,101333.36
2018-06-05T20:47:47.081Z,101342.98
2018-06-05T20:50:52.293Z,101340.83
2018-06-05T20:53:57.721Z,101345.64
2018-06-05T20:57:03.222Z,101352.67
2018-06-05T21:00:07.566Z,101349.58
2018-06-05T21:03:11.905Z,101352.67
2018-06-05T21:06:16.395Z,101358.78
2018-06-05T21:09:20.675Z,101356.16
2018-06-05T21:12:27.164Z,101354.41
2018-06-05T21:15:32.408Z,101355.72
2018-06-05T21:22:06.763Z,101368.87
2018-06-05T21:25:24.219Z,101370.20
2018-06-05T21:28:39.570Z,101373.70
2018-06-05T21:35:42.203Z,101378.06
2018-06-05T21:39:16.234Z,101386.39
2018-06-05T21:42:48.964Z,101388.56
2018-06-05T21:46:02.104Z,101388.14
2018-06-05T21:49:06.388Z,101388.12
2018-06-05T21:52:10.745Z,101389.02
2018-06-05T21:55:15.027Z,101384.62
2018-06-05T21:58:19.364Z,101385.94
2018-06-05T22:01:23.686Z,101387.25
2018-06-05T22:04:28.138Z,101379.80
2018-06-05T22:07:32.424Z,101390.29
2018-06-05T22:10:36.754Z,101384.17
2018-06-05T22:13:41.076Z,101388.56
2018-06-05T22:16:45.361Z,101385.94
2018-06-05T22:19:49.739Z,101392.05
2018-06-05T22:22:54.027Z,101389.45
2018-06-05T22:25:58.377Z,101396.44
2018-06-05T22:29:02.639Z,101401.69
2018-06-05T22:32:06.997Z,101400.38
2018-06-05T22:35:11.276Z,101401.69
2018-06-05T22:38:15.629Z,101408.68
2018-06-05T22:41:19.950Z,101409.11
2018-06-05T22:44:24.259Z,101410.42
2018-06-05T22:47:28.603Z,101400.31
2018-06-05T22:50:32.668Z,101410.30
2018-06-05T22:53:36.985Z,101413.31
2018-06-05T22:56:41.359Z,101413.74
2018-06-05T22:59:45.771Z,101420.72
2018-06-05T23:02:50.072Z,101417.13
2018-06-05T23:05:54.425Z,101420.53
2018-06-05T23:08:58.727Z,101419.64
2018-06-05T23:12:03.031Z,101420.91
2018-06-05T23:15:07.358Z,101422.17
2018-06-05T23:18:11.686Z,101430.03
2018-06-05T23:21:15.993Z,101433.47
2018-06-05T23:24:20.385Z,101438.20
2018-06-05T23:27:24.730Z,101437.22
2018-06-05T23:30:28.779Z,101443.83
2018-06-05T23:33:33.048Z,101440.28
2018-06-05T23:36:37.395Z,101441.94
2018-06-05T23:39:41.813Z,101445.45
2018-06-05T23:42:46.088Z,101445.48
2018-06-05T23:45:50.354Z,101440.75
2018-06-05T23:48:54.655Z,101443.84
2018-06-05T23:51:59.012Z,101445.66
2018-06-05T23:55:03.307Z,101450.02
2018-06-05T23:58:07.607Z,101450.48
